Ship Status Report: callsign BAREU51

sailwx.info

Track history (hours):
 
Tides and Currents Weather Stations Pressure Air Temp Water Temp Dewpoint Dewpoint Depression Visibility Wind Speed Wind Dir Waves Ship Positions

Callsign BAREU51 (name unknown)

Last reported at 2016-Apr-29 09:00 UTC. Time now 2016-Apr-29 10:03 UTC.
Position N 40°36' E 011°42'.

Barometer 1017.4 mb
Air temperature 17.7 ° C

Date/timePositionNaut miles runAvg speedWind from/ knotsBaromVisibWave heightAir tempDewpointWater temp
2016-Apr-29 09:00N 40°36' E 011°42'2625.7 1017.4 17.7
2016-Apr-29 08:00N 41°00' E 011°30'2020.1 1017.2 17.1
2016-Apr-29 07:00N 41°18' E 011°18'2827.5 1016.6 16.8
2016-Apr-29 06:00N 41°42' E 011°00'2020.1 1016.3 15.9
2016-Apr-29 05:00N 42°00' E 010°48'2222.4 1016.2 15.6
2016-Apr-29 04:00N 42°18' E 010°30'2222.4 1015.9 15.2
2016-Apr-29 03:00N 42°36' E 010°12'2020.0 1015.4 15.1
2016-Apr-29 02:00N 42°54' E 010°00'2625.5 1016.2 14.6
2016-Apr-29 01:00N 43°18' E 009°48'2020.0 1016.0 14.1
2016-Apr-29 00:00N 43°36' E 009°36'2222.2 1016.2 14.2
2016-Apr-28 23:00N 43°54' E 009°18'2222.2 1016.1 14.1
2016-Apr-28 22:00N 44°12' E 009°00'6 1.0 1015.8 14.7
2016-Apr-28 16:00N 44°18' E 009°00'2727.3 1013.0 16.0
2016-Apr-28 15:00N 43°54' E 009°18'2222.2 1012.9 16.1
2016-Apr-28 14:00N 43°36' E 009°36'2020.0 1013.2 15.0
2016-Apr-28 13:00N 43°18' E 009°48'2625.5 1013.1 14.6
2016-Apr-28 12:00N 42°54' E 010°00'2020.0 1013.8 15.8
2016-Apr-28 11:00N 42°36' E 010°12'2525.3 1014.2 14.7
2016-Apr-28 10:00N 42°18' E 010°36'2020.1 1014.1 15.3
2016-Apr-28 09:00N 42°00' E 010°48'2020.1 1014.2 15.6
2016-Apr-28 08:00N 41°42' E 011°00'2827.5 1013.7 14.6
2016-Apr-28 07:00N 41°18' E 011°18'2020.1 1014.3 15.7
2016-Apr-28 06:00N 41°00' E 011°30'2625.7 1014.5 15.9
2016-Apr-28 05:00N 40°36' E 011°42'2020.2 1013.8 15.8
2016-Apr-28 04:00N 40°18' E 011°54'2827.7 1014.0 15.9
2016-Apr-28 03:00N 39°54' E 012°12'2020.2 1014.5 16.0
2016-Apr-28 02:00N 39°36' E 012°24'2020.2 1014.7 16.1
2016-Apr-28 01:00N 39°18' E 012°36'2827.8 1014.7 16.5
2016-Apr-28 00:00N 38°54' E 012°54'2020.3 1015.1 16.8
2016-Apr-27 23:00N 38°36' E 013°06'2322.9 1015.5 16.8
2016-Apr-27 22:00N 38°18' E 013°24'6 1.0 1016.0 16.6
2016-Apr-27 16:00N 38°12' E 013°24'5627.8 1015.2 17.6
2016-Apr-27 14:00N 39°00' E 012°48'2322.8 1014.3 18.3
2016-Apr-27 13:00N 39°18' E 012°30'3030.3 1013.9 17.7
2016-Apr-27 12:00N 39°42' E 012°06'2322.7 1014.8 17.8
2016-Apr-27 11:00N 40°00' E 011°48'3030.2 1014.6 17.4
2016-Apr-27 10:00N 40°24' E 011°24'2827.6 1013.7 16.6
2016-Apr-27 09:00N 40°48' E 011°06'1818.1 1013.2 16.1
2016-Apr-27 08:00N 41°00' E 010°48'2322.5 1012.3 15.3
2016-Apr-27 07:00N 41°18' E 010°30'2625.6 1012.2 14.5
2016-Apr-27 06:00N 41°42' E 010°18'1918.5 1006.2 14.9
2016-Apr-27 05:00N 42°00' E 010°12'2727.5 1007.7 15.5
2016-Apr-27 04:00N 42°24' E 009°54'1818.0 1009.1 15.4
2016-Apr-27 03:00N 42°42' E 009°54'2625.6 1008.9 15.4
2016-Apr-27 02:00N 43°06' E 010°06'1818.0 1007.3 15.8
2016-Apr-27 01:00N 43°24' E 010°06'2222.2 1005.1 14.5
2016-Apr-27 00:00N 43°42' E 009°48'2222.2 1004.0 14.1
2016-Apr-26 23:00N 44°00' E 009°30'2121.0 1003.2 14.3
2016-Apr-26 22:00N 44°12' E 009°06'13 2.1 1004.6 14.9
2016-Apr-26 16:00N 44°24' E 009°00'4723.5 1007.1 14.9
2016-Apr-26 14:00N 43°48' E 009°42'2222.2 1005.2 13.9
2016-Apr-26 13:00N 43°30' E 010°00'2020.0 1005.6 14.2
2016-Apr-26 12:00N 43°12' E 010°12'2222.3 1010.2 15.4
2016-Apr-26 11:00N 42°54' E 010°30'2020.0 1010.7 16.5
2016-Apr-26 10:00N 42°36' E 010°42'2625.6 1010.5 16.1
2016-Apr-26 09:00N 42°12' E 010°54'2727.5 1010.6 16.6
2016-Apr-26 08:00N 41°48' E 011°12'2827.5 1009.8 15.0
2016-Apr-26 07:00N 41°24' E 011°30'2322.5 1010.6 14.1
2016-Apr-26 06:00N 41°06' E 011°48'2625.7 1013.0 13.7
2016-Apr-26 05:00N 40°42' E 012°00'2020.2 1013.2 13.4
2016-Apr-26 04:00N 40°24' E 012°12'2625.7 1013.6 14.1
2016-Apr-26 03:00N 40°00' E 012°24'2020.2 1013.9 14.0
2016-Apr-26 02:00N 39°42' E 012°36'2424.4 1014.1 14.1
2016-Apr-26 01:00N 39°18' E 012°42'2020.3 1014.3 14.1
2016-Apr-26 00:00N 39°00' E 012°54'2625.8 1014.6 14.1
2016-Apr-25 23:00N 38°36' E 013°06'2322.9 1014.9 14.3
2016-Apr-25 22:00N 38°18' E 013°24'12 0.4 1014.9 14.3
2016-Apr-24 18:00N 38°06' E 013°24'1918.6 1007.6 18.2
2016-Apr-24 17:00N 38°24' E 013°18'2222.3 1007.2 16.6
2016-Apr-24 16:00N 38°36' E 012°54'2626.0 1006.7 16.9
2016-Apr-24 15:00N 38°54' E 012°30'2222.2 1006.4 17.4
2016-Apr-24 14:00N 39°06' E 012°06'2322.8 1006.6 17.2
2016-Apr-24 13:00N 39°24' E 011°48'2222.1 1006.4 17.1
2016-Apr-24 12:00N 39°36' E 011°24'2625.8 1006.3 17.1
2016-Apr-24 11:00N 39°54' E 011°00'1818.3 1006.0 17.4
2016-Apr-24 10:00N 40°06' E 010°42'4824.1 1006.6 17.6
2016-Apr-24 08:00N 40°42' E 010°00'2424.4 1005.0 16.3
2016-Apr-24 07:00N 41°06' E 009°54'1818.0 1004.5 15.1
2016-Apr-24 06:00N 41°24' E 009°54'2424.4 998.6 15.0
2016-Apr-24 05:00N 41°48' E 009°48'2424.0 998.7 16.2
2016-Apr-24 04:00N 42°12' E 009°48'2424.4 1001.0 16.5
2016-Apr-24 03:00N 42°36' E 009°54'1918.5 1001.1 16.5
2016-Apr-24 02:00N 42°54' E 010°00'2625.5 999.6 16.3
2016-Apr-24 01:00N 43°18' E 009°48'2020.0 1001.7 15.1
2016-Apr-24 00:00N 43°36' E 009°36'2222.2 1002.5 15.4
2016-Apr-23 23:00N 43°54' E 009°18'2222.2 1002.9 15.0
2016-Apr-23 22:00N 44°12' E 009°00'13 2.5 1003.3 15.0
2016-Apr-23 17:00N 44°24' E 008°54'7 7.4 1005.2 16.6
2016-Apr-23 16:00N 44°18' E 009°00'2222.2 1005.7 16.7
2016-Apr-23 15:00N 44°00' E 009°18'2020.0 1005.7 16.2
2016-Apr-23 14:00N 43°42' E 009°30'2727.3 1006.0 15.8
2016-Apr-23 13:00N 43°18' E 009°48'2020.0 1005.0 15.4
2016-Apr-23 12:00N 43°00' E 010°00'2020.0 1009.2 17.1
2016-Apr-23 11:00N 42°42' E 010°12'2222.4 1009.7 16.8
2016-Apr-23 10:00N 42°24' E 010°30'2625.6 1010.9 17.9
2016-Apr-23 09:00N 42°00' E 010°42'2625.6 1011.6 16.6
2016-Apr-23 08:00N 41°36' E 010°54'2222.5 1011.3 16.3
2016-Apr-23 07:00N 41°18' E 011°12'2020.1 1010.8 15.9
2016-Apr-23 06:00N 41°00' E 011°24'2322.6 1011.2 15.9
2016-Apr-23 05:00N 40°42' E 011°42'2322.6 1012.4 15.3
2016-Apr-23 04:00N 40°24' E 012°00'4622.9 1012.7 16.1
2016-Apr-23 02:00N 39°42' E 012°24'2625.7 1014.4 15.8
2016-Apr-23 01:00N 39°18' E 012°36'2020.3 1015.2 16.0
2016-Apr-23 00:00N 39°00' E 012°48'2020.3 1016.1 16.1
2016-Apr-22 23:00N 38°42' E 013°00'2827.8 1016.8 15.9
2016-Apr-22 22:00N 38°18' E 013°18'13 2.6 1017.3 16.4
2016-Apr-22 17:00N 38°06' E 013°24'1212.0 1018.6 17.3
2016-Apr-22 16:00N 38°18' E 013°24'2322.9 1018.1 17.0
2016-Apr-22 15:00N 38°36' E 013°06'2827.8 1018.3 17.0
2016-Apr-22 14:00N 39°00' E 012°48'2322.8 1018.3 16.9
2016-Apr-22 13:00N 39°18' E 012°30'2020.2 1018.8 16.8
2016-Apr-22 12:00N 39°36' E 012°18'2322.7 1018.8 17.4
2016-Apr-22 11:00N 39°54' E 012°00'2827.7 1019.7 17.9
2016-Apr-22 10:00N 40°18' E 011°42'2322.6 1019.9 17.1
2016-Apr-22 09:00N 40°36' E 011°24'2020.2 1020.1 17.0
2016-Apr-22 08:00N 40°54' E 011°12'2322.5 1020.0 16.7
2016-Apr-22 07:00N 41°12' E 010°54'2827.5 1019.2 16.5
2016-Apr-22 06:00N 41°36' E 010°36'2222.5 1019.4 16.0
2016-Apr-22 05:00N 41°54' E 010°18'2020.1 1019.6 15.6
2016-Apr-22 04:00N 42°12' E 010°06'2020.1 1019.3 15.3
2016-Apr-22 03:00N 42°30' E 009°54'2424.4 1019.9 15.6
2016-Apr-22 02:00N 42°54' E 010°00'2625.5 1020.3 15.9
2016-Apr-22 01:00N 43°18' E 009°48'2020.0 1020.8 15.9
2016-Apr-22 00:00N 43°36' E 009°36'2222.2 1020.1 15.7
2016-Apr-21 23:00N 43°54' E 009°18'2727.3 1020.4 16.0
2016-Apr-21 22:00N 44°18' E 009°00'7 1.5 1022.0 16.5
2016-Apr-21 17:00N 44°24' E 008°54'1010.5 1023.0 17.6
2016-Apr-21 16:00N 44°18' E 009°06'2625.5 1022.9 17.8
2016-Apr-21 15:00N 43°54' E 009°18'2222.2 1023.2 17.3
2016-Apr-21 14:00N 43°36' E 009°36'2727.3 1023.4 17.8
2016-Apr-21 13:00N 43°12' E 009°54'1918.5 1024.0 18.0
2016-Apr-21 12:00N 42°54' E 010°00'2222.3 1024.6 18.4
2016-Apr-21 11:00N 42°36' E 010°18'2222.4 1025.3 18.1
2016-Apr-21 10:00N 42°18' E 010°36'2020.1 1025.5 17.9
2016-Apr-21 09:00N 42°00' E 010°48'2727.5 1025.5 17.6
2016-Apr-21 08:00N 41°36' E 011°06'2020.1 1025.2 16.8
2016-Apr-21 07:00N 41°18' E 011°18'2625.6 1024.4 16.2
2016-Apr-21 06:00N 40°54' E 011°30'2322.6 1024.7 17.1
2016-Apr-21 05:00N 40°36' E 011°48'2020.2 1023.6 16.5
2016-Apr-21 04:00N 40°18' E 012°00'4823.9 1022.8 16.4
2016-Apr-21 02:00N 39°36' E 012°30'2625.7 1022.1 16.5
2016-Apr-21 01:00N 39°12' E 012°42'4623.0 1022.7 16.7
2016-Apr-20 23:00N 38°30' E 013°06'2322.9 1022.8 16.9
2016-Apr-20 22:00N 38°12' E 013°24'0 0.0 1022.6 16.7
2016-Apr-20 16:00N 38°12' E 013°24'2020.3 1020.2 18.3
2016-Apr-20 15:00N 38°30' E 013°12'2827.8 1020.2 18.9
2016-Apr-20 14:00N 38°54' E 012°54'2020.3 1020.6 18.9
2016-Apr-20 13:00N 39°12' E 012°42'2827.7 1020.8 18.3
2016-Apr-20 12:00N 39°36' E 012°24'2020.2 1021.4 18.9
2016-Apr-20 11:00N 39°54' E 012°12'2625.7 1021.6 18.9
2016-Apr-20 10:00N 40°18' E 012°00'2020.2 1021.6 18.1
2016-Apr-20 09:00N 40°36' E 011°48'2827.6 1021.1 17.4
2016-Apr-20 08:00N 41°00' E 011°30'2020.1 1021.0 17.3
2016-Apr-20 07:00N 41°18' E 011°18'2020.1 1020.7 16.0
2016-Apr-20 06:00N 41°36' E 011°06'2727.5 1020.2 14.7
2016-Apr-20 05:00N 42°00' E 010°48'2020.1 1020.6 15.2
2016-Apr-20 04:00N 42°18' E 010°36'2525.3 1020.2 15.7
2016-Apr-20 03:00N 42°36' E 010°12'2020.0 1021.7 15.9
2016-Apr-20 02:00N 42°54' E 010°00'2625.5 1022.3 15.2
2016-Apr-20 01:00N 43°18' E 009°48'2020.0 1022.2 15.1
2016-Apr-20 00:00N 43°36' E 009°36'2525.0 1021.7 15.3
2016-Apr-19 23:00N 43°54' E 009°12'2625.5 1021.4 15.6
2016-Apr-19 22:00N 44°18' E 009°00'0 0.0 1021.3 15.7
2016-Apr-19 16:00N 44°18' E 009°00'2727.3 1018.7 16.4
2016-Apr-19 15:00N 43°54' E 009°18'2727.3 1018.4 16.1
2016-Apr-19 14:00N 43°30' E 009°36'2222.3 1018.7 16.2
2016-Apr-19 13:00N 43°12' E 009°54'3030.3 1018.2 15.9
2016-Apr-19 12:00N 42°42' E 010°00'2525.1 1017.6 16.3
2016-Apr-19 11:00N 42°30' E 010°30'2727.4 1016.2 16.0
2016-Apr-19 10:00N 42°06' E 010°48'2020.1 1016.0 15.7
2016-Apr-19 09:00N 41°48' E 011°00'   1016.6 16.0
Track history (hours):
 
Tides and Currents Weather Stations Pressure Air Temp Water Temp Dewpoint Dewpoint Depression Visibility Wind Speed Wind Dir Waves Ship Positions

Callsign BAREU51 (name unknown)

Last reported at 2016-Apr-29 09:00 UTC. Time now 2016-Apr-29 10:03 UTC.
Position N 40°36' E 011°42'.

Barometer 1017.4 mb
Air temperature 17.7 ° C

Date/timePositionNaut miles runAvg speedWind from/ knotsBaromVisibWave heightAir tempDewpointWater temp
2016-Apr-29 09:00N 40°36' E 011°42'2625.7 1017.4 17.7
2016-Apr-29 08:00N 41°00' E 011°30'2020.1 1017.2 17.1
2016-Apr-29 07:00N 41°18' E 011°18'2827.5 1016.6 16.8
2016-Apr-29 06:00N 41°42' E 011°00'2020.1 1016.3 15.9
2016-Apr-29 05:00N 42°00' E 010°48'2222.4 1016.2 15.6
2016-Apr-29 04:00N 42°18' E 010°30'2222.4 1015.9 15.2
2016-Apr-29 03:00N 42°36' E 010°12'2020.0 1015.4 15.1
2016-Apr-29 02:00N 42°54' E 010°00'2625.5 1016.2 14.6
2016-Apr-29 01:00N 43°18' E 009°48'2020.0 1016.0 14.1
2016-Apr-29 00:00N 43°36' E 009°36'2222.2 1016.2 14.2
2016-Apr-28 23:00N 43°54' E 009°18'2222.2 1016.1 14.1
2016-Apr-28 22:00N 44°12' E 009°00'6 1.0 1015.8 14.7
2016-Apr-28 16:00N 44°18' E 009°00'2727.3 1013.0 16.0
2016-Apr-28 15:00N 43°54' E 009°18'2222.2 1012.9 16.1
2016-Apr-28 14:00N 43°36' E 009°36'2020.0 1013.2 15.0
2016-Apr-28 13:00N 43°18' E 009°48'2625.5 1013.1 14.6
2016-Apr-28 12:00N 42°54' E 010°00'2020.0 1013.8 15.8
2016-Apr-28 11:00N 42°36' E 010°12'2525.3 1014.2 14.7
2016-Apr-28 10:00N 42°18' E 010°36'2020.1 1014.1 15.3
2016-Apr-28 09:00N 42°00' E 010°48'2020.1 1014.2 15.6
2016-Apr-28 08:00N 41°42' E 011°00'2827.5 1013.7 14.6
2016-Apr-28 07:00N 41°18' E 011°18'2020.1 1014.3 15.7
2016-Apr-28 06:00N 41°00' E 011°30'2625.7 1014.5 15.9
2016-Apr-28 05:00N 40°36' E 011°42'2020.2 1013.8 15.8
2016-Apr-28 04:00N 40°18' E 011°54'2827.7 1014.0 15.9
2016-Apr-28 03:00N 39°54' E 012°12'2020.2 1014.5 16.0
2016-Apr-28 02:00N 39°36' E 012°24'2020.2 1014.7 16.1
2016-Apr-28 01:00N 39°18' E 012°36'2827.8 1014.7 16.5
2016-Apr-28 00:00N 38°54' E 012°54'2020.3 1015.1 16.8
2016-Apr-27 23:00N 38°36' E 013°06'2322.9 1015.5 16.8
2016-Apr-27 22:00N 38°18' E 013°24'6 1.0 1016.0 16.6
2016-Apr-27 16:00N 38°12' E 013°24'5627.8 1015.2 17.6
2016-Apr-27 14:00N 39°00' E 012°48'2322.8 1014.3 18.3
2016-Apr-27 13:00N 39°18' E 012°30'3030.3 1013.9 17.7
2016-Apr-27 12:00N 39°42' E 012°06'2322.7 1014.8 17.8
2016-Apr-27 11:00N 40°00' E 011°48'3030.2 1014.6 17.4
2016-Apr-27 10:00N 40°24' E 011°24'2827.6 1013.7 16.6
2016-Apr-27 09:00N 40°48' E 011°06'1818.1 1013.2 16.1
2016-Apr-27 08:00N 41°00' E 010°48'2322.5 1012.3 15.3
2016-Apr-27 07:00N 41°18' E 010°30'2625.6 1012.2 14.5
2016-Apr-27 06:00N 41°42' E 010°18'1918.5 1006.2 14.9
2016-Apr-27 05:00N 42°00' E 010°12'2727.5 1007.7 15.5
2016-Apr-27 04:00N 42°24' E 009°54'1818.0 1009.1 15.4
2016-Apr-27 03:00N 42°42' E 009°54'2625.6 1008.9 15.4
2016-Apr-27 02:00N 43°06' E 010°06'1818.0 1007.3 15.8
2016-Apr-27 01:00N 43°24' E 010°06'2222.2 1005.1 14.5
2016-Apr-27 00:00N 43°42' E 009°48'2222.2 1004.0 14.1
2016-Apr-26 23:00N 44°00' E 009°30'2121.0 1003.2 14.3
2016-Apr-26 22:00N 44°12' E 009°06'13 2.1 1004.6 14.9
2016-Apr-26 16:00N 44°24' E 009°00'4723.5 1007.1 14.9
2016-Apr-26 14:00N 43°48' E 009°42'2222.2 1005.2 13.9
2016-Apr-26 13:00N 43°30' E 010°00'2020.0 1005.6 14.2
2016-Apr-26 12:00N 43°12' E 010°12'2222.3 1010.2 15.4
2016-Apr-26 11:00N 42°54' E 010°30'2020.0 1010.7 16.5
2016-Apr-26 10:00N 42°36' E 010°42'2625.6 1010.5 16.1
2016-Apr-26 09:00N 42°12' E 010°54'2727.5 1010.6 16.6
2016-Apr-26 08:00N 41°48' E 011°12'2827.5 1009.8 15.0
2016-Apr-26 07:00N 41°24' E 011°30'2322.5 1010.6 14.1
2016-Apr-26 06:00N 41°06' E 011°48'2625.7 1013.0 13.7
2016-Apr-26 05:00N 40°42' E 012°00'2020.2 1013.2 13.4
2016-Apr-26 04:00N 40°24' E 012°12'2625.7 1013.6 14.1
2016-Apr-26 03:00N 40°00' E 012°24'2020.2 1013.9 14.0
2016-Apr-26 02:00N 39°42' E 012°36'2424.4 1014.1 14.1
2016-Apr-26 01:00N 39°18' E 012°42'2020.3 1014.3 14.1
2016-Apr-26 00:00N 39°00' E 012°54'2625.8 1014.6 14.1
2016-Apr-25 23:00N 38°36' E 013°06'2322.9 1014.9 14.3
2016-Apr-25 22:00N 38°18' E 013°24'12 0.4 1014.9 14.3
2016-Apr-24 18:00N 38°06' E 013°24'1918.6 1007.6 18.2
2016-Apr-24 17:00N 38°24' E 013°18'2222.3 1007.2 16.6
2016-Apr-24 16:00N 38°36' E 012°54'2626.0 1006.7 16.9
2016-Apr-24 15:00N 38°54' E 012°30'2222.2 1006.4 17.4
2016-Apr-24 14:00N 39°06' E 012°06'2322.8 1006.6 17.2
2016-Apr-24 13:00N 39°24' E 011°48'2222.1 1006.4 17.1
2016-Apr-24 12:00N 39°36' E 011°24'2625.8 1006.3 17.1
2016-Apr-24 11:00N 39°54' E 011°00'1818.3 1006.0 17.4
2016-Apr-24 10:00N 40°06' E 010°42'4824.1 1006.6 17.6
2016-Apr-24 08:00N 40°42' E 010°00'2424.4 1005.0 16.3
2016-Apr-24 07:00N 41°06' E 009°54'1818.0 1004.5 15.1
2016-Apr-24 06:00N 41°24' E 009°54'2424.4 998.6 15.0
2016-Apr-24 05:00N 41°48' E 009°48'2424.0 998.7 16.2
2016-Apr-24 04:00N 42°12' E 009°48'2424.4 1001.0 16.5
2016-Apr-24 03:00N 42°36' E 009°54'1918.5 1001.1 16.5
2016-Apr-24 02:00N 42°54' E 010°00'2625.5 999.6 16.3
2016-Apr-24 01:00N 43°18' E 009°48'2020.0 1001.7 15.1
2016-Apr-24 00:00N 43°36' E 009°36'2222.2 1002.5 15.4
2016-Apr-23 23:00N 43°54' E 009°18'2222.2 1002.9 15.0
2016-Apr-23 22:00N 44°12' E 009°00'13 2.5 1003.3 15.0
2016-Apr-23 17:00N 44°24' E 008°54'7 7.4 1005.2 16.6
2016-Apr-23 16:00N 44°18' E 009°00'2222.2 1005.7 16.7
2016-Apr-23 15:00N 44°00' E 009°18'2020.0 1005.7 16.2
2016-Apr-23 14:00N 43°42' E 009°30'2727.3 1006.0 15.8
2016-Apr-23 13:00N 43°18' E 009°48'2020.0 1005.0 15.4
2016-Apr-23 12:00N 43°00' E 010°00'2020.0 1009.2 17.1
2016-Apr-23 11:00N 42°42' E 010°12'2222.4 1009.7 16.8
2016-Apr-23 10:00N 42°24' E 010°30'2625.6 1010.9 17.9
2016-Apr-23 09:00N 42°00' E 010°42'2625.6 1011.6 16.6
2016-Apr-23 08:00N 41°36' E 010°54'2222.5 1011.3 16.3
2016-Apr-23 07:00N 41°18' E 011°12'2020.1 1010.8 15.9
2016-Apr-23 06:00N 41°00' E 011°24'2322.6 1011.2 15.9
2016-Apr-23 05:00N 40°42' E 011°42'2322.6 1012.4 15.3
2016-Apr-23 04:00N 40°24' E 012°00'4622.9 1012.7 16.1
2016-Apr-23 02:00N 39°42' E 012°24'2625.7 1014.4 15.8
2016-Apr-23 01:00N 39°18' E 012°36'2020.3 1015.2 16.0
2016-Apr-23 00:00N 39°00' E 012°48'2020.3 1016.1 16.1
2016-Apr-22 23:00N 38°42' E 013°00'2827.8 1016.8 15.9
2016-Apr-22 22:00N 38°18' E 013°18'13 2.6 1017.3 16.4
2016-Apr-22 17:00N 38°06' E 013°24'1212.0 1018.6 17.3
2016-Apr-22 16:00N 38°18' E 013°24'2322.9 1018.1 17.0
2016-Apr-22 15:00N 38°36' E 013°06'2827.8 1018.3 17.0
2016-Apr-22 14:00N 39°00' E 012°48'2322.8 1018.3 16.9
2016-Apr-22 13:00N 39°18' E 012°30'2020.2 1018.8 16.8
2016-Apr-22 12:00N 39°36' E 012°18'2322.7 1018.8 17.4
2016-Apr-22 11:00N 39°54' E 012°00'2827.7 1019.7 17.9
2016-Apr-22 10:00N 40°18' E 011°42'2322.6 1019.9 17.1
2016-Apr-22 09:00N 40°36' E 011°24'2020.2 1020.1 17.0
2016-Apr-22 08:00N 40°54' E 011°12'2322.5 1020.0 16.7
2016-Apr-22 07:00N 41°12' E 010°54'2827.5 1019.2 16.5
2016-Apr-22 06:00N 41°36' E 010°36'2222.5 1019.4 16.0
2016-Apr-22 05:00N 41°54' E 010°18'2020.1 1019.6 15.6
2016-Apr-22 04:00N 42°12' E 010°06'2020.1 1019.3 15.3
2016-Apr-22 03:00N 42°30' E 009°54'2424.4 1019.9 15.6
2016-Apr-22 02:00N 42°54' E 010°00'2625.5 1020.3 15.9
2016-Apr-22 01:00N 43°18' E 009°48'2020.0 1020.8 15.9
2016-Apr-22 00:00N 43°36' E 009°36'2222.2 1020.1 15.7
2016-Apr-21 23:00N 43°54' E 009°18'2727.3 1020.4 16.0
2016-Apr-21 22:00N 44°18' E 009°00'7 1.5 1022.0 16.5
2016-Apr-21 17:00N 44°24' E 008°54'1010.5 1023.0 17.6
2016-Apr-21 16:00N 44°18' E 009°06'2625.5 1022.9 17.8
2016-Apr-21 15:00N 43°54' E 009°18'2222.2 1023.2 17.3
2016-Apr-21 14:00N 43°36' E 009°36'2727.3 1023.4 17.8
2016-Apr-21 13:00N 43°12' E 009°54'1918.5 1024.0 18.0
2016-Apr-21 12:00N 42°54' E 010°00'2222.3 1024.6 18.4
2016-Apr-21 11:00N 42°36' E 010°18'2222.4 1025.3 18.1
2016-Apr-21 10:00N 42°18' E 010°36'2020.1 1025.5 17.9
2016-Apr-21 09:00N 42°00' E 010°48'2727.5 1025.5 17.6
2016-Apr-21 08:00N 41°36' E 011°06'2020.1 1025.2 16.8
2016-Apr-21 07:00N 41°18' E 011°18'2625.6 1024.4 16.2
2016-Apr-21 06:00N 40°54' E 011°30'2322.6 1024.7 17.1
2016-Apr-21 05:00N 40°36' E 011°48'2020.2 1023.6 16.5
2016-Apr-21 04:00N 40°18' E 012°00'4823.9 1022.8 16.4
2016-Apr-21 02:00N 39°36' E 012°30'2625.7 1022.1 16.5
2016-Apr-21 01:00N 39°12' E 012°42'4623.0 1022.7 16.7
2016-Apr-20 23:00N 38°30' E 013°06'2322.9 1022.8 16.9
2016-Apr-20 22:00N 38°12' E 013°24'0 0.0 1022.6 16.7
2016-Apr-20 16:00N 38°12' E 013°24'2020.3 1020.2 18.3
2016-Apr-20 15:00N 38°30' E 013°12'2827.8 1020.2 18.9
2016-Apr-20 14:00N 38°54' E 012°54'2020.3 1020.6 18.9
2016-Apr-20 13:00N 39°12' E 012°42'2827.7 1020.8 18.3
2016-Apr-20 12:00N 39°36' E 012°24'2020.2 1021.4 18.9
2016-Apr-20 11:00N 39°54' E 012°12'2625.7 1021.6 18.9
2016-Apr-20 10:00N 40°18' E 012°00'2020.2 1021.6 18.1
2016-Apr-20 09:00N 40°36' E 011°48'2827.6 1021.1 17.4
2016-Apr-20 08:00N 41°00' E 011°30'2020.1 1021.0 17.3
2016-Apr-20 07:00N 41°18' E 011°18'2020.1 1020.7 16.0
2016-Apr-20 06:00N 41°36' E 011°06'2727.5 1020.2 14.7
2016-Apr-20 05:00N 42°00' E 010°48'2020.1 1020.6 15.2
2016-Apr-20 04:00N 42°18' E 010°36'2525.3 1020.2 15.7
2016-Apr-20 03:00N 42°36' E 010°12'2020.0 1021.7 15.9
2016-Apr-20 02:00N 42°54' E 010°00'2625.5 1022.3 15.2
2016-Apr-20 01:00N 43°18' E 009°48'2020.0 1022.2 15.1
2016-Apr-20 00:00N 43°36' E 009°36'2525.0 1021.7 15.3
2016-Apr-19 23:00N 43°54' E 009°12'2625.5 1021.4 15.6
2016-Apr-19 22:00N 44°18' E 009°00'0 0.0 1021.3 15.7
2016-Apr-19 16:00N 44°18' E 009°00'2727.3 1018.7 16.4
2016-Apr-19 15:00N 43°54' E 009°18'2727.3 1018.4 16.1
2016-Apr-19 14:00N 43°30' E 009°36'2222.3 1018.7 16.2
2016-Apr-19 13:00N 43°12' E 009°54'3030.3 1018.2 15.9
2016-Apr-19 12:00N 42°42' E 010°00'2525.1 1017.6 16.3
2016-Apr-19 11:00N 42°30' E 010°30'2727.4 1016.2 16.0
2016-Apr-19 10:00N 42°06' E 010°48'2020.1 1016.0 15.7
2016-Apr-19 09:00N 41°48' E 011°00'   1016.6 16.0

Dump ship's entire track history